createdAt,value
2017-10-26T00:02:04.395Z,101628.38
2017-10-26T00:04:31.538Z,101631.41
2017-10-26T00:06:58.682Z,101626.22
2017-10-26T00:09:25.844Z,101617.07
2017-10-26T00:11:53.020Z,101616.64
2017-10-26T00:14:20.173Z,101616.23
2017-10-26T00:16:47.330Z,101620.11
2017-10-26T00:19:14.494Z,101620.99
2017-10-26T00:21:42.680Z,101626.69
2017-10-26T00:24:09.904Z,101627.06
2017-10-26T00:26:37.054Z,101624.03
2017-10-26T00:29:04.197Z,101616.23
2017-10-26T00:31:31.365Z,101614.92
2017-10-26T00:33:58.531Z,101625.33
2017-10-26T00:36:25.677Z,101625.42
2017-10-26T00:38:52.845Z,101627.15
2017-10-26T00:41:20.164Z,101635.84
2017-10-26T00:43:48.097Z,101628.45
2017-10-26T00:46:15.256Z,101638.07
2017-10-26T00:48:42.406Z,101639.34
2017-10-26T00:51:09.546Z,101643.72
2017-10-26T00:53:36.688Z,101645.91
2017-10-26T00:56:03.837Z,101640.22
2017-10-26T00:58:30.996Z,101632.38
2017-10-26T01:00:58.141Z,101637.26
2017-10-26T01:03:25.287Z,101640.69
2017-10-26T01:05:52.432Z,101641.22
2017-10-26T01:08:19.597Z,101637.26
2017-10-26T01:10:46.752Z,101630.72
2017-10-26T01:13:13.903Z,101624.23
2017-10-26T01:15:41.046Z,101629.00
2017-10-26T01:18:08.213Z,101629.45
2017-10-26T01:20:35.363Z,101628.11
2017-10-26T01:23:02.522Z,101625.12
2017-10-26T01:25:29.691Z,101621.61
2017-10-26T01:27:56.831Z,101623.77
2017-10-26T01:30:24.008Z,101611.16
2017-10-26T01:32:51.172Z,101618.53
2017-10-26T01:35:18.349Z,101618.16
2017-10-26T01:37:45.517Z,101616.84
2017-10-26T01:40:13.449Z,101618.16
2017-10-26T01:42:40.607Z,101613.39
2017-10-26T01:45:07.755Z,101617.27
2017-10-26T01:47:34.929Z,101617.73
2017-10-26T01:50:02.083Z,101625.12
2017-10-26T01:52:29.235Z,101622.08
2017-10-26T01:54:56.384Z,101628.19
2017-10-26T01:57:23.550Z,101627.30
2017-10-26T01:59:50.712Z,101612.50
2017-10-26T02:02:17.853Z,101607.70
2017-10-26T02:04:44.994Z,101604.66
2017-10-26T02:07:12.146Z,101615.12
2017-10-26T02:09:39.293Z,101614.70
2017-10-26T02:12:06.479Z,101611.23
2017-10-26T02:14:33.641Z,101610.36
2017-10-26T02:17:00.791Z,101607.32
2017-10-26T02:19:27.933Z,101604.70
2017-10-26T02:21:55.094Z,101606.02
2017-10-26T02:24:22.251Z,101605.12
2017-10-26T02:26:49.394Z,101614.28
2017-10-26T02:29:16.554Z,101612.55
2017-10-26T02:31:43.704Z,101614.73
2017-10-26T02:34:10.872Z,101616.05
2017-10-26T02:36:38.028Z,101614.73
2017-10-26T02:39:05.188Z,101608.62
2017-10-26T02:41:33.116Z,101609.09
2017-10-26T02:44:00.435Z,101609.52
2017-10-26T02:46:27.582Z,101598.67
2017-10-26T02:48:55.042Z,101593.87
2017-10-26T02:51:22.196Z,101589.95
2017-10-26T02:53:49.337Z,101599.98
2017-10-26T02:56:17.265Z,101599.09
2017-10-26T02:58:44.438Z,101594.75
2017-10-26T03:01:11.592Z,101600.83
2017-10-26T03:03:38.760Z,101597.80
2017-10-26T03:06:05.901Z,101602.17
2017-10-26T03:08:33.040Z,101605.63
2017-10-26T03:11:00.307Z,101593.87
2017-10-26T03:13:28.223Z,101590.41
2017-10-26T03:15:55.387Z,101592.14
2017-10-26T03:18:22.533Z,101585.61
2017-10-26T03:20:49.681Z,101589.99
2017-10-26T03:23:16.844Z,101581.73
2017-10-26T03:25:43.994Z,101586.95
2017-10-26T03:28:11.151Z,101590.88
2017-10-26T03:30:38.290Z,101596.57
2017-10-26T03:33:05.452Z,101604.37
2017-10-26T03:35:32.617Z,101620.90
2017-10-26T03:37:59.791Z,101620.02
2017-10-26T03:40:26.964Z,101625.63
2017-10-26T03:42:54.120Z,101627.34
2017-10-26T03:45:21.266Z,101626.00
2017-10-26T03:47:48.427Z,101608.55
2017-10-26T03:50:15.657Z,101599.34
2017-10-26T03:52:42.820Z,101593.23
2017-10-26T03:55:10.240Z,101583.16
2017-10-26T03:57:37.407Z,101591.34
2017-10-26T04:00:04.601Z,101606.53
2017-10-26T04:02:31.746Z,101607.41
2017-10-26T04:04:58.901Z,101592.98
2017-10-26T04:07:26.042Z,101579.88
2017-10-26T04:09:53.185Z,101566.80
2017-10-26T04:12:20.344Z,101580.67
2017-10-26T04:14:47.485Z,101589.36
2017-10-26T04:17:14.630Z,101590.16
2017-10-26T04:19:41.774Z,101592.78
2017-10-26T04:22:09.116Z,101594.04
2017-10-26T04:24:36.329Z,101586.54
2017-10-26T04:27:04.293Z,101577.39
2017-10-26T04:29:31.446Z,101578.23
2017-10-26T04:31:58.609Z,101582.58
2017-10-26T04:34:25.758Z,101595.61
2017-10-26T04:36:52.925Z,101596.88
2017-10-26T04:39:20.075Z,101594.68
2017-10-26T04:41:47.222Z,101597.72
2017-10-26T04:44:14.367Z,101595.98
2017-10-26T04:46:41.530Z,101585.11
2017-10-26T04:49:08.679Z,101593.84
2017-10-26T04:51:35.832Z,101596.45
2017-10-26T04:54:02.983Z,101585.99
2017-10-26T04:56:30.144Z,101582.07
2017-10-26T04:58:57.295Z,101585.56
2017-10-26T05:01:24.437Z,101576.88
2017-10-26T05:03:51.585Z,101578.19
2017-10-26T05:06:18.753Z,101576.46
2017-10-26T05:08:45.898Z,101574.31
2017-10-26T05:11:13.063Z,101577.39
2017-10-26T05:13:40.228Z,101578.77
2017-10-26T05:16:07.374Z,101574.84
2017-10-26T05:18:34.536Z,101579.66
2017-10-26T05:21:01.703Z,101579.28
2017-10-26T05:23:29.632Z,101578.44
2017-10-26T05:25:56.940Z,101581.09
2017-10-26T05:28:24.858Z,101581.09
2017-10-26T05:30:52.029Z,101576.75
2017-10-26T05:33:19.205Z,101566.34
2017-10-26T05:35:46.380Z,101568.06
2017-10-26T05:38:13.577Z,101574.18
2017-10-26T05:40:40.751Z,101568.53
2017-10-26T05:43:08.221Z,101572.03
2017-10-26T05:45:35.402Z,101572.41
2017-10-26T05:48:02.555Z,101565.45
2017-10-26T05:50:29.690Z,101566.80
2017-10-26T05:52:56.835Z,101558.53
2017-10-26T05:55:23.983Z,101556.39
2017-10-26T05:57:51.121Z,101558.07
2017-10-26T06:00:19.021Z,101554.57
2017-10-26T06:02:46.184Z,101553.69
2017-10-26T06:05:13.352Z,101557.14
2017-10-26T06:07:40.508Z,101550.61
2017-10-26T06:10:07.654Z,101553.22
2017-10-26T06:12:34.821Z,101549.30
2017-10-26T06:15:01.967Z,101554.48
2017-10-26T06:17:29.113Z,101550.98
2017-10-26T06:19:56.273Z,101548.37
2017-10-26T06:22:23.431Z,101558.32
2017-10-26T06:24:50.588Z,101565.28
2017-10-26T06:27:17.729Z,101558.73
2017-10-26T06:29:44.875Z,101570.92
2017-10-26T06:32:12.023Z,101569.63
2017-10-26T06:34:39.171Z,101575.20
2017-10-26T06:37:06.342Z,101580.84
2017-10-26T06:39:33.520Z,101571.73
2017-10-26T06:42:00.658Z,101576.08
2017-10-26T06:44:27.803Z,101567.81
2017-10-26T06:46:54.968Z,101570.92
2017-10-26T06:49:22.139Z,101573.55
2017-10-26T06:51:49.302Z,101572.28
2017-10-26T06:54:16.463Z,101587.50
2017-10-26T06:56:43.653Z,101585.35
2017-10-26T06:59:10.798Z,101577.55
2017-10-26T07:01:37.954Z,101571.91
2017-10-26T07:04:05.144Z,101575.41
2017-10-26T07:06:32.303Z,101601.55
2017-10-26T07:08:59.438Z,101601.97
2017-10-26T07:11:26.613Z,101601.55
2017-10-26T07:13:53.764Z,101609.81
2017-10-26T07:16:20.921Z,101617.23
2017-10-26T07:18:48.082Z,101622.47
2017-10-26T07:21:15.263Z,101622.47
2017-10-26T07:23:42.438Z,101620.27
2017-10-26T07:26:09.770Z,101628.08
2017-10-26T07:28:36.919Z,101633.30
2017-10-26T07:31:04.077Z,101625.88
2017-10-26T07:33:31.227Z,101627.61
2017-10-26T07:35:58.660Z,101628.50
2017-10-26T07:38:25.844Z,101617.61
2017-10-26T07:40:52.999Z,101618.46
2017-10-26T07:43:20.157Z,101611.55
2017-10-26T07:45:47.313Z,101615.89
2017-10-26T07:48:14.472Z,101608.05
2017-10-26T07:50:41.668Z,101605.94
2017-10-26T07:53:08.982Z,101606.78
2017-10-26T07:55:36.123Z,101605.05
2017-10-26T07:58:03.309Z,101608.55
2017-10-26T08:00:30.458Z,101612.47
2017-10-26T08:02:58.366Z,101610.32
2017-10-26T08:05:25.515Z,101604.25
2017-10-26T08:07:52.672Z,101602.09
2017-10-26T08:10:19.847Z,101603.41
2017-10-26T08:12:46.994Z,101609.05
2017-10-26T08:15:14.147Z,101601.21
2017-10-26T08:17:41.292Z,101604.67
2017-10-26T08:20:08.433Z,101599.02
2017-10-26T08:22:35.585Z,101596.36
2017-10-26T08:25:02.730Z,101597.67
2017-10-26T08:27:30.027Z,101600.24
2017-10-26T08:29:57.949Z,101601.55
2017-10-26T08:32:25.105Z,101602.39
2017-10-26T08:34:52.268Z,101601.92
2017-10-26T08:37:19.405Z,101606.69
2017-10-26T08:39:46.551Z,101604.97
2017-10-26T08:42:13.717Z,101603.19
2017-10-26T08:44:40.862Z,101604.08
2017-10-26T08:47:08.014Z,101609.73
2017-10-26T08:49:35.168Z,101603.19
2017-10-26T08:52:02.321Z,101598.42
2017-10-26T08:54:29.517Z,101602.77
2017-10-26T08:56:56.657Z,101603.23
2017-10-26T08:59:23.811Z,101597.58
2017-10-26T09:01:50.980Z,101589.31
2017-10-26T09:04:18.141Z,101591.09
2017-10-26T09:06:45.282Z,101597.16
2017-10-26T09:09:12.427Z,101591.55
2017-10-26T09:11:39.576Z,101592.44
2017-10-26T09:14:06.754Z,101595.94
2017-10-26T09:16:33.953Z,101607.70
2017-10-26T09:19:01.905Z,101595.56
2017-10-26T09:21:29.058Z,101601.67
2017-10-26T09:23:56.202Z,101593.41
2017-10-26T09:26:23.342Z,101596.45
2017-10-26T09:28:50.490Z,101602.09
2017-10-26T09:31:17.649Z,101599.06
2017-10-26T09:33:44.827Z,101588.61
2017-10-26T09:36:11.969Z,101594.72
2017-10-26T09:38:39.103Z,101590.33
2017-10-26T09:41:06.268Z,101597.71
2017-10-26T09:43:33.428Z,101592.91
2017-10-26T09:46:00.686Z,101598.17
2017-10-26T09:48:27.831Z,101595.52
2017-10-26T09:50:55.752Z,101592.44
2017-10-26T09:53:22.906Z,101595.52
2017-10-26T09:55:50.065Z,101599.86
2017-10-26T09:58:17.210Z,101600.70
2017-10-26T10:00:44.346Z,101606.78
2017-10-26T10:03:11.505Z,101601.12
2017-10-26T10:05:38.658Z,101601.55
2017-10-26T10:08:05.817Z,101607.20
2017-10-26T10:10:32.984Z,101589.83
2017-10-26T10:13:00.154Z,101594.62
2017-10-26T10:15:27.308Z,101596.36
2017-10-26T10:17:54.450Z,101590.75
2017-10-26T10:20:21.605Z,101591.17
2017-10-26T10:22:48.770Z,101589.87
2017-10-26T10:25:15.953Z,101591.59
2017-10-26T10:27:43.173Z,101585.52
2017-10-26T10:30:10.346Z,101579.88
2017-10-26T10:32:37.534Z,101585.56
2017-10-26T10:35:04.685Z,101586.88
2017-10-26T10:37:32.612Z,101579.96
2017-10-26T10:39:59.769Z,101588.23
2017-10-26T10:42:26.921Z,101586.07
2017-10-26T10:44:54.077Z,101582.58
2017-10-26T10:47:21.264Z,101575.58
2017-10-26T10:49:49.174Z,101567.77
2017-10-26T10:52:16.309Z,101563.01
2017-10-26T10:54:43.455Z,101561.70
2017-10-26T10:57:10.611Z,101559.93
2017-10-26T10:59:43.336Z,101552.97
2017-10-26T11:02:10.497Z,101559.47
2017-10-26T11:04:37.796Z,101566.84
2017-10-26T11:07:05.709Z,101569.41
2017-10-26T11:09:32.858Z,101554.57
2017-10-26T11:12:00.016Z,101569.80
2017-10-26T11:14:27.315Z,101559.75
2017-10-26T11:16:54.469Z,101551.03
2017-10-26T11:19:21.630Z,101561.44
2017-10-26T11:21:49.625Z,101555.80
2017-10-26T11:24:19.260Z,101571.02
2017-10-26T11:39:41.550Z,101539.64
2017-10-26T11:42:08.716Z,101537.86
2017-10-26T11:44:35.877Z,101547.44
2017-10-26T11:47:03.027Z,101547.02
2017-10-26T11:49:30.197Z,101545.29
2017-10-26T11:51:57.342Z,101550.94
2017-10-26T11:54:24.494Z,101553.97
2017-10-26T11:56:52.394Z,101549.63
2017-10-26T11:59:19.922Z,101551.36
2017-10-26T12:01:48.174Z,101544.87
2017-10-26T12:04:15.510Z,101541.37
2017-10-26T12:06:42.649Z,101534.83
2017-10-26T12:09:09.799Z,101531.75
2017-10-26T12:11:37.122Z,101516.11
2017-10-26T12:14:04.279Z,101496.08
2017-10-26T12:16:31.533Z,101486.03
2017-10-26T12:18:58.714Z,101486.08
2017-10-26T12:21:25.875Z,101480.02
2017-10-26T12:23:53.062Z,101477.39
2017-10-26T12:26:20.207Z,101475.62
2017-10-26T12:28:47.567Z,101490.05
2017-10-26T12:31:15.475Z,101497.89
2017-10-26T12:33:42.676Z,101493.12
2017-10-26T12:36:09.871Z,101501.86
2017-10-26T12:38:37.015Z,101487.94
2017-10-26T12:41:04.163Z,101474.03
2017-10-26T12:43:31.852Z,101464.88
2017-10-26T12:45:59.039Z,101462.69
2017-10-26T12:48:26.224Z,101471.88
2017-10-26T12:50:53.385Z,101476.22
2017-10-26T12:53:20.526Z,101487.10
2017-10-26T12:55:47.693Z,101491.91
2017-10-26T12:58:15.428Z,101487.14
2017-10-26T13:00:42.620Z,101472.85
2017-10-26T13:03:09.781Z,101477.62
2017-10-26T13:05:36.925Z,101473.31
2017-10-26T13:08:04.074Z,101475.52
2017-10-26T13:10:31.213Z,101470.70
2017-10-26T13:12:58.381Z,101463.28
2017-10-26T13:15:25.534Z,101456.33
2017-10-26T13:17:52.700Z,101457.59
2017-10-26T13:20:19.859Z,101459.22
2017-10-26T13:22:47.798Z,101450.54
2017-10-26T13:25:14.964Z,101450.50
2017-10-26T13:27:42.105Z,101443.49
2017-10-26T13:30:09.403Z,101448.63
2017-10-26T13:32:36.546Z,101453.81
2017-10-26T13:35:04.497Z,101453.77
2017-10-26T13:37:31.664Z,101460.27
2017-10-26T13:39:58.805Z,101456.30
2017-10-26T13:42:25.947Z,101455.88
2017-10-26T13:44:53.086Z,101458.91
2017-10-26T13:47:20.231Z,101453.19
2017-10-26T13:49:47.397Z,101461.92
2017-10-26T13:52:14.552Z,101456.30
2017-10-26T13:54:41.697Z,101462.42
2017-10-26T13:57:08.903Z,101458.50
2017-10-26T13:59:36.047Z,101456.77
2017-10-26T14:02:03.205Z,101457.23
2017-10-26T14:04:30.369Z,101448.13
2017-10-26T14:06:57.742Z,101452.47
2017-10-26T14:09:25.045Z,101455.55
2017-10-26T14:11:52.191Z,101458.62
2017-10-26T14:14:19.492Z,101453.86
2017-10-26T14:16:47.333Z,101451.67
2017-10-26T14:19:14.567Z,101450.36
2017-10-26T14:21:41.726Z,101451.72
2017-10-26T14:24:09.481Z,101453.48
2017-10-26T14:26:36.919Z,101456.10
2017-10-26T14:29:04.847Z,101460.86
2017-10-26T14:31:31.997Z,101450.45
2017-10-26T14:33:59.531Z,101448.72
2017-10-26T14:36:26.665Z,101461.80
2017-10-26T14:38:53.808Z,101462.22
2017-10-26T14:41:21.366Z,101457.92
2017-10-26T14:43:48.527Z,101447.88
2017-10-26T14:46:15.679Z,101443.12
2017-10-26T14:48:42.853Z,101440.08
2017-10-26T14:51:10.011Z,101436.58
2017-10-26T14:53:37.155Z,101434.90
2017-10-26T14:56:04.317Z,101428.36
2017-10-26T14:58:31.476Z,101422.67
2017-10-26T15:00:58.619Z,101419.21
2017-10-26T15:03:25.782Z,101417.95
2017-10-26T15:05:52.953Z,101428.83
2017-10-26T15:08:20.093Z,101413.98
2017-10-26T15:10:47.276Z,101410.95
2017-10-26T15:13:14.420Z,101412.21
2017-10-26T15:15:41.581Z,101412.25
2017-10-26T15:18:08.742Z,101406.52
2017-10-26T15:20:36.444Z,101410.39
2017-10-26T15:23:03.621Z,101418.66
2017-10-26T15:25:31.925Z,101420.34
2017-10-26T15:27:59.057Z,101425.53
2017-10-26T15:30:26.213Z,101412.87
2017-10-26T15:32:53.376Z,101396.72
2017-10-26T15:35:20.515Z,101408.02
2017-10-26T15:37:47.666Z,101407.97
2017-10-26T15:40:14.848Z,101412.78
2017-10-26T15:42:42.021Z,101417.89
2017-10-26T15:45:09.195Z,101433.11
2017-10-26T15:47:36.352Z,101426.16
2017-10-26T15:50:03.521Z,101410.94
2017-10-26T15:52:30.669Z,101420.04
2017-10-26T15:54:57.845Z,101426.58
2017-10-26T15:57:25.002Z,101438.77
2017-10-26T15:59:52.165Z,101435.38
2017-10-26T16:02:19.321Z,101428.84
2017-10-26T16:04:46.476Z,101431.38
2017-10-26T16:07:13.627Z,101429.73
2017-10-26T16:09:40.809Z,101424.08
2017-10-26T16:12:07.962Z,101411.05
2017-10-26T16:14:35.106Z,101409.75
2017-10-26T16:17:02.270Z,101407.18
2017-10-26T16:19:29.470Z,101402.41
2017-10-26T16:21:56.632Z,101389.34
2017-10-26T16:24:23.795Z,101392.42
2017-10-26T16:26:51.707Z,101393.73
2017-10-26T16:29:18.857Z,101389.77
2017-10-26T16:31:45.990Z,101394.62
2017-10-26T16:34:13.332Z,101402.00
2017-10-26T16:36:40.493Z,101393.77
2017-10-26T16:39:07.811Z,101396.81
2017-10-26T16:41:34.970Z,101404.61
2017-10-26T16:44:02.136Z,101406.75
2017-10-26T16:46:29.279Z,101406.75
2017-10-26T16:48:56.440Z,101405.87
2017-10-26T16:51:23.582Z,101399.33
2017-10-26T16:53:51.054Z,101398.87
2017-10-26T16:56:18.216Z,101409.75
2017-10-26T16:58:45.357Z,101405.83
2017-10-26T17:01:12.513Z,101407.55
2017-10-26T17:03:39.669Z,101405.78
2017-10-26T17:06:06.821Z,101405.36
2017-10-26T17:08:33.957Z,101401.91
2017-10-26T17:11:01.127Z,101402.79
2017-10-26T17:13:28.297Z,101394.06
2017-10-26T17:15:55.438Z,101388.83
2017-10-26T17:18:22.578Z,101380.10
2017-10-26T17:20:49.721Z,101379.30
2017-10-26T17:23:16.892Z,101386.68
2017-10-26T17:25:44.043Z,101385.42
2017-10-26T17:28:11.209Z,101393.27
2017-10-26T17:30:38.349Z,101398.03
2017-10-26T17:33:05.503Z,101397.65
2017-10-26T17:35:32.642Z,101388.97
2017-10-26T17:37:59.809Z,101388.08
2017-10-26T17:40:26.960Z,101386.81
2017-10-26T17:42:54.097Z,101382.94
2017-10-26T17:45:21.261Z,101387.23
2017-10-26T17:47:48.404Z,101377.20
2017-10-26T17:50:15.600Z,101363.28
2017-10-26T17:52:42.782Z,101361.09
2017-10-26T17:55:09.946Z,101358.02
2017-10-26T17:57:37.097Z,101355.82
2017-10-26T18:00:04.257Z,101354.94
2017-10-26T18:02:31.440Z,101367.95
2017-10-26T18:04:58.595Z,101387.52
2017-10-26T18:07:25.811Z,101384.02
2017-10-26T18:09:53.119Z,101390.09
2017-10-26T18:12:20.280Z,101390.94
2017-10-26T18:14:47.417Z,101390.52
2017-10-26T18:17:14.585Z,101397.47
2017-10-26T18:19:41.744Z,101408.27
2017-10-26T18:22:08.890Z,101405.70
2017-10-26T18:24:36.330Z,101420.83
2017-10-26T18:27:03.491Z,101418.27
2017-10-26T18:29:30.652Z,101414.77
2017-10-26T18:31:58.099Z,101424.80
2017-10-26T18:34:25.478Z,101420.92
2017-10-26T18:36:52.671Z,101426.62
2017-10-26T18:39:20.582Z,101423.20
2017-10-26T18:41:47.978Z,101414.52
2017-10-26T18:44:16.006Z,101400.59
2017-10-26T18:46:43.235Z,101387.98
2017-10-26T18:49:10.533Z,101370.06
2017-10-26T18:51:37.899Z,101368.80
2017-10-26T18:54:05.441Z,101384.06
2017-10-26T18:56:33.619Z,101399.75
2017-10-26T18:59:00.895Z,101404.14
2017-10-26T19:01:28.056Z,101396.30
2017-10-26T19:03:55.211Z,101402.00
2017-10-26T19:06:22.369Z,101400.64
2017-10-26T19:08:50.259Z,101402.41
2017-10-26T19:11:18.441Z,101403.67
2017-10-26T19:13:45.585Z,101401.06
2017-10-26T19:16:12.726Z,101389.72
2017-10-26T19:18:40.214Z,101394.95
2017-10-26T19:21:07.381Z,101391.02
2017-10-26T19:23:34.693Z,101387.06
2017-10-26T19:26:02.044Z,101387.06
2017-10-26T19:28:29.963Z,101392.70
2017-10-26T19:30:57.904Z,101397.81
2017-10-26T19:33:25.756Z,101392.49
2017-10-26T19:35:53.439Z,101399.41
2017-10-26T19:38:20.610Z,101405.09
2017-10-26T19:40:47.777Z,101400.76
2017-10-26T19:43:15.682Z,101390.81
2017-10-26T19:45:43.068Z,101399.96
2017-10-26T19:48:11.669Z,101394.36
2017-10-26T19:50:40.628Z,101389.20
2017-10-26T19:53:09.297Z,101393.59
2017-10-26T19:55:38.399Z,101403.16
2017-10-26T19:58:06.974Z,101400.55
2017-10-26T20:00:36.036Z,101403.26
2017-10-26T20:03:04.659Z,101394.11
2017-10-26T20:05:32.885Z,101404.56
2017-10-26T20:08:01.499Z,101403.26
2017-10-26T20:10:30.686Z,101404.61
2017-10-26T20:12:58.349Z,101396.34
2017-10-26T20:15:25.937Z,101394.62
2017-10-26T20:17:53.728Z,101394.20
2017-10-26T20:20:21.707Z,101399.47
2017-10-26T20:22:48.875Z,101399.37
2017-10-26T20:25:16.022Z,101401.16
2017-10-26T20:27:43.179Z,101405.08
2017-10-26T20:30:11.304Z,101402.08
2017-10-26T20:32:38.545Z,101397.74
2017-10-26T20:35:05.727Z,101390.36
2017-10-26T20:37:32.889Z,101397.78
2017-10-26T20:40:00.112Z,101399.14
2017-10-26T20:42:27.361Z,101398.25
2017-10-26T20:44:54.522Z,101398.30
2017-10-26T20:47:21.684Z,101391.62
2017-10-26T20:49:54.507Z,101386.86
2017-10-26T20:52:27.302Z,101389.94
2017-10-26T20:55:00.562Z,101392.98
2017-10-26T20:57:33.720Z,101388.22
2017-10-26T21:00:07.056Z,101376.91
2017-10-26T21:02:40.273Z,101397.78
2017-10-26T21:05:13.328Z,101392.98
2017-10-26T21:07:46.477Z,101393.77
2017-10-26T21:10:19.273Z,101395.50
2017-10-26T21:12:51.857Z,101386.22
2017-10-26T21:15:19.017Z,101389.97
2017-10-26T21:17:46.443Z,101389.13
2017-10-26T21:20:14.454Z,101391.33
2017-10-26T21:22:42.372Z,101393.55
2017-10-26T21:25:10.040Z,101402.16
2017-10-26T21:27:37.656Z,101391.82
2017-10-26T21:30:05.666Z,101388.36
2017-10-26T21:32:33.604Z,101382.71
2017-10-26T21:35:00.763Z,101374.45
2017-10-26T21:37:27.909Z,101367.49
2017-10-26T21:39:55.061Z,101368.84
2017-10-26T21:42:22.216Z,101370.16
2017-10-26T21:44:49.372Z,101376.27
2017-10-26T21:47:16.530Z,101386.30
2017-10-26T21:49:43.858Z,101393.73
2017-10-26T21:52:11.024Z,101391.95
2017-10-26T21:54:38.351Z,101391.58
2017-10-26T21:57:05.868Z,101379.81
2017-10-26T21:59:33.009Z,101375.47
2017-10-26T22:02:00.328Z,101382.47
2017-10-26T22:04:29.003Z,101383.78
2017-10-26T22:06:56.291Z,101387.75
2017-10-26T22:09:23.452Z,101377.72
2017-10-26T22:11:50.607Z,101379.91
2017-10-26T22:14:18.054Z,101383.41
2017-10-26T22:16:45.216Z,101376.03
2017-10-26T22:19:12.646Z,101369.96
2017-10-26T22:21:39.813Z,101382.14
2017-10-26T22:24:06.966Z,101387.38
2017-10-26T22:26:34.114Z,101385.65
2017-10-26T22:29:01.280Z,101385.22
2017-10-26T22:31:28.439Z,101380.88
2017-10-26T22:33:55.596Z,101386.16
2017-10-26T22:36:22.764Z,101392.23
2017-10-26T22:38:49.924Z,101390.97
2017-10-26T22:41:17.086Z,101382.70
2017-10-26T22:43:44.466Z,101371.90
2017-10-26T22:46:11.614Z,101360.48
2017-10-26T22:48:38.782Z,101358.75
2017-10-26T22:51:05.955Z,101358.28
2017-10-26T22:53:33.130Z,101357.45
2017-10-26T22:56:00.285Z,101355.72
2017-10-26T22:58:27.467Z,101354.83
2017-10-26T23:00:54.629Z,101362.67
2017-10-26T23:03:21.778Z,101358.75
2017-10-26T23:05:48.921Z,101366.17
2017-10-26T23:08:16.071Z,101362.25
2017-10-26T23:10:43.233Z,101370.59
2017-10-26T23:13:10.401Z,101365.78
2017-10-26T23:15:37.545Z,101363.22
2017-10-26T23:18:04.709Z,101370.59
2017-10-26T23:20:31.869Z,101372.37
2017-10-26T23:22:59.028Z,101373.67
2017-10-26T23:25:26.178Z,101367.19
2017-10-26T23:27:53.349Z,101364.10
2017-10-26T23:30:20.494Z,101358.03
2017-10-26T23:32:47.667Z,101350.66
2017-10-26T23:35:14.832Z,101348.51
2017-10-26T23:37:41.986Z,101342.39
2017-10-26T23:40:09.135Z,101345.47
2017-10-26T23:42:36.282Z,101347.62
2017-10-26T23:45:03.427Z,101352.38
2017-10-26T23:47:30.681Z,101346.31
2017-10-26T23:49:57.852Z,101348.09
2017-10-26T23:52:24.998Z,101369.84
2017-10-26T23:54:52.160Z,101368.11
2017-10-26T23:57:19.328Z,101378.57
2017-10-26T23:59:46.497Z,101380.30
